createdAt,value
2019-01-31T00:01:06.928Z,99583.27
2019-01-31T00:04:21.818Z,99573.28
2019-01-31T00:07:46.129Z,99580.19
2019-01-31T00:10:40.959Z,99575.88
2019-01-31T00:14:11.830Z,99569.86
2019-01-31T00:17:16.621Z,99569.47
2019-01-31T00:20:12.292Z,99569.86
2019-01-31T00:23:25.363Z,99574.19
2019-01-31T00:26:43.543Z,99577.70
2019-01-31T00:30:05.469Z,99581.09
2019-01-31T00:33:12.167Z,99578.95
2019-01-31T00:36:15.159Z,99573.39
2019-01-31T00:39:32.999Z,99583.73
2019-01-31T00:42:07.404Z,99585.09
2019-01-31T00:45:09.006Z,99588.98
2019-01-31T00:48:17.976Z,99590.70
2019-01-31T00:50:54.056Z,99590.70
2019-01-31T00:53:43.678Z,99588.92
2019-01-31T00:56:46.031Z,99582.02
2019-01-31T00:59:55.248Z,99585.97
2019-01-31T01:03:00.849Z,99589.80
2019-01-31T01:05:58.227Z,99593.32
2019-01-31T01:09:25.122Z,99595.05
2019-01-31T01:12:05.462Z,99595.41
2019-01-31T01:15:02.974Z,99606.16
2019-01-31T01:17:51.786Z,99605.72
2019-01-31T01:20:51.923Z,99611.45
2019-01-31T01:24:10.117Z,99619.20
2019-01-31T01:26:48.098Z,99622.64
2019-01-31T01:29:56.159Z,99619.20
2019-01-31T01:33:24.635Z,99619.23
2019-01-31T01:36:15.953Z,99623.52
2019-01-31T01:39:19.807Z,99619.70
2019-01-31T01:42:24.178Z,99622.22
2019-01-31T01:45:06.023Z,99622.64
2019-01-31T01:47:33.434Z,99622.22
2019-01-31T01:50:11.860Z,99622.67
2019-01-31T01:53:39.802Z,99622.30
2019-01-31T01:56:49.824Z,99621.88
2019-01-31T01:59:16.920Z,99617.96
2019-01-31T02:02:16.997Z,99614.63
2019-01-31T02:05:05.599Z,99614.57
2019-01-31T02:08:00.393Z,99619.28
2019-01-31T02:11:01.868Z,99625.71
2019-01-31T02:14:16.892Z,99624.41
2019-01-31T02:17:32.139Z,99617.11
2019-01-31T02:20:28.932Z,99607.08
2019-01-31T02:23:29.122Z,99610.55
2019-01-31T02:26:17.871Z,99615.36
2019-01-31T02:29:28.217Z,99598.88
2019-01-31T02:32:12.319Z,99602.77
2019-01-31T02:35:14.069Z,99598.45
2019-01-31T02:37:47.942Z,99592.39
2019-01-31T02:40:47.073Z,99595.46
2019-01-31T02:43:25.493Z,99589.88
2019-01-31T02:46:45.709Z,99602.34
2019-01-31T02:49:21.580Z,99595.41
2019-01-31T02:52:26.799Z,99608.91
2019-01-31T02:55:00.818Z,99602.28
2019-01-31T02:58:24.894Z,99608.43
2019-01-31T03:01:43.253Z,99609.81
2019-01-31T03:04:39.446Z,99602.85
2019-01-31T03:07:21.108Z,99603.67
2019-01-31T03:10:25.375Z,99605.50
2019-01-31T03:13:35.985Z,99605.02
2019-01-31T03:16:47.272Z,99594.64
2019-01-31T03:19:27.611Z,99606.40
2019-01-31T03:22:41.584Z,99611.45
2019-01-31T03:25:49.294Z,99610.63
2019-01-31T03:28:54.267Z,99609.81
2019-01-31T03:32:06.695Z,99609.78
2019-01-31T03:35:19.503Z,99608.98
2019-01-31T03:38:31.420Z,99607.70
2019-01-31T03:42:05.788Z,99600.77
2019-01-31T03:44:42.070Z,99595.09
2019-01-31T03:47:52.643Z,99585.56
2019-01-31T03:50:14.107Z,99581.67
2019-01-31T03:53:18.372Z,99578.23
2019-01-31T03:55:57.222Z,99578.22
2019-01-31T03:58:51.597Z,99585.09
2019-01-31T04:02:34.949Z,99589.41
2019-01-31T04:05:43.377Z,99582.50
2019-01-31T04:07:50.385Z,99572.20
2019-01-31T04:09:57.724Z,99571.73
2019-01-31T04:12:05.231Z,99579.84
2019-01-31T04:14:12.596Z,99582.11
2019-01-31T04:16:20.069Z,99588.14
2019-01-31T04:18:26.995Z,99582.50
2019-01-31T04:20:34.177Z,99576.02
2019-01-31T04:22:41.259Z,99568.66
2019-01-31T04:24:48.436Z,99573.36
2019-01-31T04:26:55.392Z,99569.53
2019-01-31T04:29:02.418Z,99572.06
2019-01-31T04:31:09.511Z,99577.70
2019-01-31T04:33:17.525Z,99577.73
2019-01-31T04:35:24.566Z,99582.44
2019-01-31T04:37:31.618Z,99582.58
2019-01-31T04:39:39.207Z,99588.02
2019-01-31T04:41:46.291Z,99585.52
2019-01-31T04:43:53.311Z,99590.22
2019-01-31T04:46:00.328Z,99584.13
2019-01-31T04:48:07.446Z,99589.31
2019-01-31T04:50:15.699Z,99591.52
2019-01-31T04:52:22.708Z,99593.58
2019-01-31T04:54:29.632Z,99598.38
2019-01-31T04:56:36.650Z,99597.52
2019-01-31T04:58:43.670Z,99601.05
2019-01-31T05:00:51.968Z,99594.95
2019-01-31T05:02:58.976Z,99600.17
2019-01-31T05:05:07.102Z,99590.14
2019-01-31T05:07:14.200Z,99593.20
2019-01-31T05:09:21.219Z,99597.52
2019-01-31T05:11:28.259Z,99600.48
2019-01-31T05:13:35.371Z,99592.25
2019-01-31T05:15:42.427Z,99596.23
2019-01-31T05:17:49.444Z,99598.68
2019-01-31T05:22:03.580Z,99586.58
2019-01-31T05:24:10.796Z,99585.77
2019-01-31T05:26:18.153Z,99579.28
2019-01-31T05:28:25.506Z,99584.55
2019-01-31T05:30:33.126Z,99599.30
2019-01-31T05:32:40.526Z,99613.14
2019-01-31T05:34:47.496Z,99599.30
2019-01-31T05:36:54.505Z,99595.77
2019-01-31T05:39:01.673Z,99591.38
2019-01-31T05:41:08.730Z,99582.78
2019-01-31T05:43:16.033Z,99584.08
2019-01-31T05:45:23.240Z,99570.55
2019-01-31T05:47:30.314Z,99567.95
2019-01-31T05:49:37.357Z,99563.97
2019-01-31T05:51:44.779Z,99568.43
2019-01-31T05:53:51.779Z,99576.63
2019-01-31T05:55:58.916Z,99583.06
2019-01-31T05:58:05.990Z,99569.39
2019-01-31T06:00:21.761Z,99570.30
2019-01-31T06:02:28.994Z,99576.77
2019-01-31T06:04:36.045Z,99578.49
2019-01-31T06:06:43.176Z,99574.52
2019-01-31T06:08:51.151Z,99575.81
2019-01-31T06:11:07.207Z,99577.11
2019-01-31T06:13:07.081Z,99575.00
2019-01-31T06:15:16.037Z,99580.10
2019-01-31T06:17:23.095Z,99582.72
2019-01-31T06:19:30.158Z,99583.60
2019-01-31T06:21:37.130Z,99578.80
2019-01-31T06:23:44.186Z,99575.00
2019-01-31T06:25:51.240Z,99582.44
2019-01-31T06:27:58.357Z,99581.87
2019-01-31T06:30:06.266Z,99582.72
2019-01-31T06:32:13.333Z,99593.58
2019-01-31T06:34:20.370Z,99584.50
2019-01-31T06:36:27.531Z,99586.67
2019-01-31T06:38:34.530Z,99583.60
2019-01-31T06:40:41.817Z,99584.50
2019-01-31T06:42:49.249Z,99584.89
2019-01-31T06:44:56.345Z,99595.27
2019-01-31T06:47:03.503Z,99600.94
2019-01-31T06:49:10.727Z,99597.05
2019-01-31T06:51:18.838Z,99591.44
2019-01-31T06:53:25.937Z,99588.36
2019-01-31T06:55:33.269Z,99597.78
2019-01-31T06:57:40.328Z,99601.67
2019-01-31T06:59:47.572Z,99597.80
2019-01-31T07:01:55.067Z,99593.49
2019-01-31T07:04:02.133Z,99589.52
2019-01-31T07:06:09.263Z,99590.02
2019-01-31T07:08:16.412Z,99592.14
2019-01-31T07:10:26.487Z,99602.13
2019-01-31T07:12:33.588Z,99598.26
2019-01-31T07:14:40.781Z,99588.78
2019-01-31T07:16:47.826Z,99599.08
2019-01-31T07:18:54.997Z,99594.73
2019-01-31T07:21:02.071Z,99590.00
2019-01-31T07:23:09.074Z,99592.59
2019-01-31T07:25:19.748Z,99592.59
2019-01-31T07:27:26.853Z,99587.88
2019-01-31T07:29:33.878Z,99589.27
2019-01-31T07:31:40.814Z,99587.80
2019-01-31T07:33:48.040Z,99594.28
2019-01-31T07:35:55.149Z,99585.20
2019-01-31T07:38:02.216Z,99593.91
2019-01-31T07:40:10.331Z,99600.40
2019-01-31T07:42:17.535Z,99600.85
2019-01-31T07:44:24.664Z,99600.00
2019-01-31T07:46:31.744Z,99600.46
2019-01-31T07:48:38.977Z,99603.05
2019-01-31T07:50:46.205Z,99597.89
2019-01-31T07:52:53.353Z,99599.16
2019-01-31T07:55:01.997Z,99600.88
2019-01-31T07:57:09.566Z,99592.67
2019-01-31T07:59:16.786Z,99600.94
2019-01-31T08:01:23.867Z,99601.75
2019-01-31T08:03:30.996Z,99602.15
2019-01-31T08:05:38.162Z,99599.53
2019-01-31T08:07:45.225Z,99598.26
2019-01-31T08:09:52.389Z,99603.05
2019-01-31T08:11:59.519Z,99607.34
2019-01-31T08:14:06.731Z,99609.53
2019-01-31T08:16:13.781Z,99587.02
2019-01-31T08:18:20.931Z,99584.44
2019-01-31T08:20:27.984Z,99603.90
2019-01-31T08:22:35.054Z,99606.86
2019-01-31T08:24:42.233Z,99602.52
2019-01-31T08:26:49.263Z,99608.95
2019-01-31T08:28:56.360Z,99614.19
2019-01-31T08:31:03.555Z,99617.14
2019-01-31T08:33:10.587Z,99618.41
2019-01-31T08:35:17.590Z,99624.11
2019-01-31T08:37:24.763Z,99618.08
2019-01-31T08:39:31.843Z,99619.43
2019-01-31T08:41:38.926Z,99617.23
2019-01-31T08:43:46.733Z,99629.75
2019-01-31T08:45:53.869Z,99626.70
2019-01-31T08:48:00.972Z,99625.83
2019-01-31T08:50:10.786Z,99624.93
2019-01-31T08:52:17.840Z,99621.58
2019-01-31T08:54:24.932Z,99621.58
2019-01-31T08:56:31.968Z,99622.81
2019-01-31T08:58:39.012Z,99621.49
2019-01-31T09:00:46.043Z,99631.05
2019-01-31T09:02:53.083Z,99626.23
2019-01-31T09:05:00.317Z,99621.52
2019-01-31T09:07:07.392Z,99621.13
2019-01-31T09:09:15.910Z,99619.85
2019-01-31T09:11:23.881Z,99628.77
2019-01-31T09:13:31.773Z,99619.74
2019-01-31T09:15:38.866Z,99626.70
2019-01-31T09:17:46.067Z,99634.44
2019-01-31T09:19:53.091Z,99626.79
2019-01-31T09:22:24.449Z,99634.48
2019-01-31T09:25:22.068Z,99625.83
2019-01-31T09:28:16.431Z,99626.70
2019-01-31T09:31:29.753Z,99622.34
2019-01-31T09:34:42.222Z,99617.59
2019-01-31T09:37:53.315Z,99617.55
2019-01-31T09:41:15.543Z,99618.41
2019-01-31T09:44:08.090Z,99614.55
2019-01-31T09:47:08.544Z,99611.48
2019-01-31T09:50:11.690Z,99622.34
2019-01-31T09:53:30.875Z,99617.94
2019-01-31T09:56:29.281Z,99630.94
2019-01-31T09:59:28.573Z,99627.47
2019-01-31T10:02:44.472Z,99618.25
2019-01-31T10:05:27.706Z,99613.99
2019-01-31T10:08:12.223Z,99609.08
2019-01-31T10:11:17.466Z,99610.97
2019-01-31T10:14:16.774Z,99607.98
2019-01-31T10:17:31.434Z,99609.22
2019-01-31T10:20:34.026Z,99601.05
2019-01-31T10:23:12.762Z,99600.09
2019-01-31T10:25:53.847Z,99591.48
2019-01-31T10:28:52.855Z,99595.38
2019-01-31T10:32:14.705Z,99596.25
2019-01-31T10:35:30.619Z,99589.26
2019-01-31T10:38:26.531Z,99595.49
2019-01-31T10:41:41.700Z,99601.44
2019-01-31T10:44:48.887Z,99592.84
2019-01-31T10:48:12.261Z,99594.20
2019-01-31T10:50:50.357Z,99593.60
2019-01-31T10:53:50.329Z,99582.31
2019-01-31T10:56:45.847Z,99574.39
2019-01-31T10:59:16.210Z,99572.61
2019-01-31T11:02:18.267Z,99567.81
2019-01-31T11:05:26.196Z,99565.64
2019-01-31T11:08:46.326Z,99565.64
2019-01-31T11:11:19.779Z,99562.20
2019-01-31T11:14:13.347Z,99563.38
2019-01-31T11:17:34.549Z,99563.74
2019-01-31T11:20:22.498Z,99562.44
2019-01-31T11:23:14.706Z,99556.80
2019-01-31T11:26:14.182Z,99565.42
2019-01-31T11:29:33.977Z,99566.30
2019-01-31T11:32:38.432Z,99566.30
2019-01-31T11:35:45.082Z,99562.44
2019-01-31T11:38:32.946Z,99561.98
2019-01-31T11:41:21.625Z,99565.06
2019-01-31T11:44:11.423Z,99568.23
2019-01-31T11:47:12.784Z,99559.21
2019-01-31T11:50:04.170Z,99552.63
2019-01-31T11:53:03.598Z,99550.07
2019-01-31T11:55:34.602Z,99558.25
2019-01-31T11:58:58.442Z,99563.05
2019-01-31T12:01:07.494Z,99563.53
2019-01-31T12:03:14.585Z,99568.56
2019-01-31T12:05:22.163Z,99564.83
2019-01-31T12:07:29.199Z,99565.22
2019-01-31T12:09:36.359Z,99565.28
2019-01-31T12:11:43.514Z,99563.38
2019-01-31T12:13:50.669Z,99562.56
2019-01-31T12:15:57.688Z,99562.11
2019-01-31T12:18:04.891Z,99554.84
2019-01-31T12:20:12.515Z,99557.77
2019-01-31T12:22:19.594Z,99552.63
2019-01-31T12:24:26.701Z,99553.51
2019-01-31T12:26:33.799Z,99554.30
2019-01-31T12:28:41.458Z,99545.27
2019-01-31T12:30:48.555Z,99543.97
2019-01-31T12:32:55.564Z,99545.21
2019-01-31T12:35:02.753Z,99545.60
2019-01-31T12:37:09.870Z,99541.26
2019-01-31T12:39:16.970Z,99538.63
2019-01-31T12:41:24.085Z,99537.76
2019-01-31T12:43:35.262Z,99534.20
2019-01-31T12:45:39.985Z,99526.41
2019-01-31T12:47:47.141Z,99531.62
2019-01-31T12:49:54.298Z,99536.37
2019-01-31T12:52:04.082Z,99544.61
2019-01-31T12:54:10.267Z,99543.28
2019-01-31T12:56:17.433Z,99535.07
2019-01-31T12:58:33.358Z,99528.61
2019-01-31T13:00:33.273Z,99526.80
2019-01-31T13:02:40.497Z,99533.38
2019-01-31T13:04:47.648Z,99529.78
2019-01-31T13:06:54.879Z,99531.95
2019-01-31T13:09:02.039Z,99528.00
2019-01-31T13:11:09.172Z,99527.16
2019-01-31T13:13:16.384Z,99518.63
2019-01-31T13:15:23.453Z,99515.48
2019-01-31T13:17:30.543Z,99515.02
2019-01-31T13:19:37.830Z,99512.91
2019-01-31T13:21:44.983Z,99511.58
2019-01-31T13:23:52.215Z,99510.73
2019-01-31T13:25:59.334Z,99505.06
2019-01-31T13:28:06.437Z,99504.64
2019-01-31T13:30:17.218Z,99494.20
2019-01-31T13:32:24.963Z,99504.64
2019-01-31T13:34:32.185Z,99497.86
2019-01-31T13:36:39.281Z,99496.92
2019-01-31T13:38:46.368Z,99504.61
2019-01-31T13:40:53.489Z,99501.30
2019-01-31T13:43:00.728Z,99494.00
2019-01-31T13:45:10.000Z,99503.53
2019-01-31T13:47:17.593Z,99498.34
2019-01-31T13:49:24.790Z,99506.13
2019-01-31T13:51:31.956Z,99504.02
2019-01-31T13:53:39.327Z,99502.72
2019-01-31T13:55:46.620Z,99504.77
2019-01-31T13:57:54.149Z,99508.72
2019-01-31T14:00:01.397Z,99501.78
2019-01-31T14:02:09.421Z,99493.16
2019-01-31T14:04:16.885Z,99504.86
2019-01-31T14:06:23.918Z,99505.31
2019-01-31T14:08:31.144Z,99516.09
2019-01-31T14:10:38.382Z,99517.36
2019-01-31T14:12:45.680Z,99510.05
2019-01-31T14:14:52.887Z,99513.49
2019-01-31T14:17:00.112Z,99513.59
2019-01-31T14:19:07.455Z,99519.53
2019-01-31T14:21:14.906Z,99516.58
2019-01-31T14:23:22.233Z,99517.84
2019-01-31T14:25:29.633Z,99515.70
2019-01-31T14:27:37.006Z,99510.99
2019-01-31T14:29:44.261Z,99520.47
2019-01-31T14:31:51.513Z,99518.33
2019-01-31T14:33:58.631Z,99527.44
2019-01-31T14:36:05.879Z,99519.63
2019-01-31T14:38:13.307Z,99519.17
2019-01-31T14:40:20.455Z,99523.55
2019-01-31T14:42:27.603Z,99531.27
2019-01-31T14:44:34.839Z,99518.72
2019-01-31T14:46:41.889Z,99524.81
2019-01-31T14:48:48.957Z,99521.37
2019-01-31T14:50:56.080Z,99522.25
2019-01-31T14:53:03.756Z,99519.59
2019-01-31T14:55:11.327Z,99517.88
2019-01-31T14:57:18.492Z,99517.80
2019-01-31T14:59:25.679Z,99512.68
2019-01-31T15:01:32.921Z,99520.89
2019-01-31T15:03:40.482Z,99514.83
2019-01-31T15:05:47.762Z,99516.09
2019-01-31T15:07:54.879Z,99525.66
2019-01-31T15:10:02.172Z,99527.77
2019-01-31T15:12:09.333Z,99529.09
2019-01-31T15:14:16.417Z,99523.48
2019-01-31T15:16:23.532Z,99529.09
2019-01-31T15:18:30.824Z,99538.24
2019-01-31T15:20:44.303Z,99535.64
2019-01-31T15:22:51.440Z,99545.60
2019-01-31T15:24:58.704Z,99540.84
2019-01-31T15:27:05.817Z,99548.20
2019-01-31T15:29:13.083Z,99544.77
2019-01-31T15:31:20.411Z,99544.77
2019-01-31T15:33:27.861Z,99554.69
2019-01-31T15:35:35.148Z,99544.79
2019-01-31T15:37:42.300Z,99557.28
2019-01-31T15:39:49.518Z,99556.89
2019-01-31T15:41:56.680Z,99552.63
2019-01-31T15:44:03.881Z,99554.36
2019-01-31T15:46:12.840Z,99558.58
2019-01-31T15:48:19.933Z,99571.16
2019-01-31T15:50:27.032Z,99563.83
2019-01-31T15:52:34.126Z,99563.41
2019-01-31T15:54:41.292Z,99562.47
2019-01-31T15:56:48.540Z,99566.45
2019-01-31T15:58:55.691Z,99563.77
2019-01-31T16:01:02.969Z,99569.41
2019-01-31T16:03:13.046Z,99565.55
2019-01-31T16:05:20.128Z,99567.66
2019-01-31T16:07:27.231Z,99569.05
2019-01-31T16:09:34.339Z,99570.71
2019-01-31T16:11:41.251Z,99568.14
2019-01-31T16:13:48.820Z,99567.75
2019-01-31T16:15:56.058Z,99575.53
2019-01-31T16:18:03.168Z,99564.25
2019-01-31T16:20:12.235Z,99563.83
2019-01-31T16:22:19.345Z,99559.48
2019-01-31T16:24:26.512Z,99562.56
2019-01-31T16:26:33.596Z,99576.74
2019-01-31T16:28:40.755Z,99578.95
2019-01-31T16:30:50.732Z,99572.37
2019-01-31T16:32:58.183Z,99577.59
2019-01-31T16:35:06.039Z,99574.99
2019-01-31T16:37:13.265Z,99574.63
2019-01-31T16:39:20.328Z,99582.84
2019-01-31T16:41:27.815Z,99580.64
2019-01-31T16:43:35.322Z,99580.70
2019-01-31T16:45:45.895Z,99584.63
2019-01-31T16:47:51.599Z,99580.30
2019-01-31T16:49:58.695Z,99579.01
2019-01-31T16:52:06.487Z,99580.27
2019-01-31T16:54:14.314Z,99575.93
2019-01-31T16:56:21.812Z,99570.41
2019-01-31T16:58:29.137Z,99573.48
2019-01-31T17:00:36.347Z,99567.42
2019-01-31T17:02:44.833Z,99572.19
2019-01-31T17:04:52.176Z,99570.83
2019-01-31T17:06:59.801Z,99574.30
2019-01-31T17:09:10.201Z,99573.00
2019-01-31T17:11:17.698Z,99566.13
2019-01-31T17:13:24.959Z,99566.58
2019-01-31T17:15:32.280Z,99568.72
2019-01-31T17:17:39.780Z,99559.30
2019-01-31T17:19:46.903Z,99558.91
2019-01-31T17:21:54.175Z,99564.58
2019-01-31T17:24:01.763Z,99562.32
2019-01-31T17:26:09.289Z,99571.09
2019-01-31T17:28:16.780Z,99560.75
2019-01-31T17:30:25.620Z,99570.25
2019-01-31T17:32:32.779Z,99570.25
2019-01-31T17:34:40.781Z,99568.02
2019-01-31T17:36:48.617Z,99559.78
2019-01-31T17:38:56.169Z,99562.86
2019-01-31T17:41:04.253Z,99567.23
2019-01-31T17:43:13.422Z,99562.02
2019-01-31T17:45:30.021Z,99578.09
2019-01-31T17:47:29.833Z,99569.80
2019-01-31T17:49:37.109Z,99569.44
2019-01-31T17:51:44.305Z,99574.53
2019-01-31T17:53:51.670Z,99572.84
2019-01-31T17:55:58.932Z,99574.98
2019-01-31T17:58:06.659Z,99577.55
2019-01-31T18:00:24.427Z,99578.40
2019-01-31T18:02:31.943Z,99583.62
2019-01-31T18:04:39.315Z,99572.84
2019-01-31T18:06:47.223Z,99576.73
2019-01-31T18:08:54.634Z,99571.12
2019-01-31T18:11:02.067Z,99576.59
2019-01-31T18:13:10.422Z,99577.25
2019-01-31T18:15:18.662Z,99572.84
2019-01-31T18:17:29.821Z,99582.41
2019-01-31T18:19:35.805Z,99590.10
2019-01-31T18:21:43.414Z,99584.38
2019-01-31T18:23:51.096Z,99583.28
2019-01-31T18:25:59.362Z,99590.19
2019-01-31T18:28:07.365Z,99588.89
2019-01-31T18:30:22.049Z,99594.47
2019-01-31T18:32:29.928Z,99593.18
2019-01-31T18:34:38.849Z,99591.00
2019-01-31T18:36:46.830Z,99585.73
2019-01-31T18:38:57.534Z,99593.99
2019-01-31T18:41:04.226Z,99591.34
2019-01-31T18:43:11.560Z,99592.67
2019-01-31T18:45:22.478Z,99593.03
2019-01-31T18:47:30.712Z,99588.33
2019-01-31T18:49:38.672Z,99593.99
2019-01-31T18:51:46.359Z,99596.11
2019-01-31T18:53:54.366Z,99594.36
2019-01-31T18:56:02.433Z,99590.44
2019-01-31T18:58:11.581Z,99585.28
2019-01-31T19:00:24.408Z,99588.63
2019-01-31T19:02:31.647Z,99590.44
2019-01-31T19:04:38.729Z,99593.34
2019-01-31T19:06:45.951Z,99587.33
2019-01-31T19:08:53.053Z,99590.05
2019-01-31T19:11:00.405Z,99597.04
2019-01-31T19:13:08.373Z,99592.70
2019-01-31T19:15:16.844Z,99592.70
2019-01-31T19:17:24.506Z,99597.83
2019-01-31T19:19:31.819Z,99594.42
2019-01-31T19:21:39.005Z,99593.52
2019-01-31T19:23:46.261Z,99596.11
2019-01-31T19:25:53.472Z,99592.64
2019-01-31T19:28:00.558Z,99593.06
2019-01-31T19:30:19.098Z,99591.83
2019-01-31T19:32:26.328Z,99586.66
2019-01-31T19:34:33.601Z,99591.77
2019-01-31T19:36:41.069Z,99600.00
2019-01-31T19:38:48.354Z,99599.61
2019-01-31T19:40:55.758Z,99596.20
2019-01-31T19:43:03.043Z,99592.30
2019-01-31T19:45:15.872Z,99582.77
2019-01-31T19:47:23.349Z,99588.33
2019-01-31T19:49:31.656Z,99591.73
2019-01-31T19:51:38.808Z,99594.42
2019-01-31T19:53:48.391Z,99584.52
2019-01-31T19:55:55.101Z,99592.30
2019-01-31T19:58:02.291Z,99593.16
2019-01-31T20:00:11.580Z,99584.91
2019-01-31T20:02:19.118Z,99578.03
2019-01-31T20:04:26.359Z,99581.92
2019-01-31T20:06:33.997Z,99586.64
2019-01-31T20:08:41.699Z,99575.86
2019-01-31T20:10:49.322Z,99580.63
2019-01-31T20:12:58.431Z,99583.59
2019-01-31T20:15:07.315Z,99589.71
2019-01-31T20:17:14.928Z,99589.26
2019-01-31T20:19:22.903Z,99591.88
2019-01-31T20:21:30.762Z,99589.73
2019-01-31T20:23:38.414Z,99594.90
2019-01-31T20:25:52.741Z,99597.07
2019-01-31T20:28:00.442Z,99590.95
2019-01-31T20:30:09.456Z,99595.32
2019-01-31T20:32:16.605Z,99584.09
2019-01-31T20:34:24.279Z,99592.33
2019-01-31T20:36:32.153Z,99586.69
2019-01-31T20:38:40.321Z,99585.45
2019-01-31T20:40:47.692Z,99583.34
2019-01-31T20:42:54.800Z,99585.88
2019-01-31T20:45:01.975Z,99588.41
2019-01-31T20:47:09.081Z,99586.30
2019-01-31T20:49:16.256Z,99585.00
2019-01-31T20:51:23.459Z,99580.75
2019-01-31T20:53:30.737Z,99581.56
2019-01-31T20:55:37.873Z,99582.41
2019-01-31T20:57:45.110Z,99585.48
2019-01-31T20:59:58.086Z,99589.37
2019-01-31T21:02:05.400Z,99591.13
2019-01-31T21:04:12.607Z,99591.03
2019-01-31T21:06:19.851Z,99591.13
2019-01-31T21:08:27.223Z,99589.83
2019-01-31T21:10:34.530Z,99598.45
2019-01-31T21:12:41.759Z,99598.57
2019-01-31T21:14:49.099Z,99597.21
2019-01-31T21:16:56.324Z,99600.14
2019-01-31T21:19:03.400Z,99604.03
2019-01-31T21:21:10.495Z,99598.91
2019-01-31T21:23:17.809Z,99602.85
2019-01-31T21:25:24.995Z,99607.59
2019-01-31T21:27:32.241Z,99598.12
2019-01-31T21:29:39.537Z,99606.77
2019-01-31T21:31:46.644Z,99609.84
2019-01-31T21:33:53.966Z,99605.08
2019-01-31T21:36:01.092Z,99601.19
2019-01-31T21:38:08.784Z,99601.58
2019-01-31T21:40:15.938Z,99607.20
2019-01-31T21:42:23.065Z,99600.34
2019-01-31T21:44:30.332Z,99608.97
2019-01-31T21:46:37.530Z,99611.59
2019-01-31T21:48:44.810Z,99604.17
2019-01-31T21:50:52.011Z,99608.66
2019-01-31T21:52:59.147Z,99603.53
2019-01-31T21:55:07.107Z,99609.25
2019-01-31T21:57:14.205Z,99606.52
2019-01-31T21:59:21.459Z,99617.45
2019-01-31T22:01:28.903Z,99618.19
2019-01-31T22:03:36.238Z,99617.45
2019-01-31T22:05:43.658Z,99615.34
2019-01-31T22:07:51.246Z,99615.73
2019-01-31T22:09:58.995Z,99610.29
2019-01-31T22:12:06.323Z,99613.70
2019-01-31T22:14:14.042Z,99625.48
2019-01-31T22:16:21.961Z,99625.45
2019-01-31T22:18:29.363Z,99621.00
2019-01-31T22:20:37.576Z,99621.00
2019-01-31T22:22:45.641Z,99624.47
2019-01-31T22:24:52.721Z,99626.75
2019-01-31T22:26:59.922Z,99616.77
2019-01-31T22:29:08.361Z,99622.91
2019-01-31T22:31:15.785Z,99623.73
2019-01-31T22:33:22.890Z,99623.81
2019-01-31T22:35:30.102Z,99621.27
2019-01-31T22:37:37.407Z,99623.84
2019-01-31T22:39:44.515Z,99623.84
2019-01-31T22:41:51.666Z,99621.27
2019-01-31T22:43:58.955Z,99618.73
2019-01-31T22:46:06.121Z,99620.87
2019-01-31T22:48:13.458Z,99622.20
2019-01-31T22:50:22.225Z,99619.63
2019-01-31T22:52:29.300Z,99618.41
2019-01-31T22:54:36.534Z,99622.65
2019-01-31T22:56:43.603Z,99619.61
2019-01-31T22:58:50.734Z,99624.77
2019-01-31T23:01:39.351Z,99616.27
2019-01-31T23:03:46.538Z,99615.02
2019-01-31T23:05:53.682Z,99617.59
2019-01-31T23:08:00.894Z,99612.33
2019-01-31T23:10:08.571Z,99616.86
2019-01-31T23:12:15.695Z,99616.30
2019-01-31T23:14:22.930Z,99624.20
2019-01-31T23:16:30.408Z,99619.92
2019-01-31T23:18:37.600Z,99624.33
2019-01-31T23:20:44.828Z,99628.69
2019-01-31T23:22:52.031Z,99629.17
2019-01-31T23:24:59.084Z,99628.75
2019-01-31T23:27:06.226Z,99629.59
2019-01-31T23:29:13.298Z,99627.34
2019-01-31T23:31:20.503Z,99623.98
2019-01-31T23:33:27.578Z,99623.19
2019-01-31T23:35:34.799Z,99622.77
2019-01-31T23:37:41.951Z,99634.92
2019-01-31T23:39:49.136Z,99627.08
2019-01-31T23:41:56.264Z,99631.47
2019-01-31T23:44:03.393Z,99630.62
2019-01-31T23:46:10.466Z,99642.70
2019-01-31T23:48:17.696Z,99643.17
2019-01-31T23:50:24.745Z,99647.11
2019-01-31T23:52:31.821Z,99646.59
2019-01-31T23:54:38.967Z,99643.63
2019-01-31T23:56:46.072Z,99646.59
2019-01-31T23:58:53.158Z,99657.41
